sensor_id;sensor_type;location;lat;lon;timestamp;P1;durP1;ratioP1;P2;durP2;ratioP2
4563;SDS011;2294;51.818;8.484;2022-09-06T00:00:14;5.90;;;3.87;;
4563;SDS011;2294;51.818;8.484;2022-09-06T00:02:42;16.77;;;3.70;;
4563;SDS011;2294;51.818;8.484;2022-09-06T00:05:10;7.03;;;3.50;;
4563;SDS011;2294;51.818;8.484;2022-09-06T00:07:38;3.60;;;3.30;;
4563;SDS011;2294;51.818;8.484;2022-09-06T00:10:05;3.60;;;3.30;;
4563;SDS011;2294;51.818;8.484;2022-09-06T00:12:32;4.90;;;3.87;;
4563;SDS011;2294;51.818;8.484;2022-09-06T00:14:59;4.87;;;3.87;;
4563;SDS011;2294;51.818;8.484;2022-09-06T00:17:28;5.37;;;4.17;;
4563;SDS011;2294;51.818;8.484;2022-09-06T00:19:56;6.73;;;3.87;;
4563;SDS011;2294;51.818;8.484;2022-09-06T00:22:23;11.07;;;3.30;;
4563;SDS011;2294;51.818;8.484;2022-09-06T00:24:50;3.90;;;3.50;;
4563;SDS011;2294;51.818;8.484;2022-09-06T00:27:16;5.63;;;3.27;;
4563;SDS011;2294;51.818;8.484;2022-09-06T00:29:43;4.63;;;3.90;;
4563;SDS011;2294;51.818;8.484;2022-09-06T00:32:10;6.23;;;4.17;;
4563;SDS011;2294;51.818;8.484;2022-09-06T00:34:38;6.40;;;3.90;;
4563;SDS011;2294;51.818;8.484;2022-09-06T00:37:06;7.53;;;4.23;;
4563;SDS011;2294;51.818;8.484;2022-09-06T00:39:33;4.13;;;3.73;;
4563;SDS011;2294;51.818;8.484;2022-09-06T00:42:00;6.87;;;4.03;;
4563;SDS011;2294;51.818;8.484;2022-09-06T00:44:27;4.67;;;4.07;;
4563;SDS011;2294;51.818;8.484;2022-09-06T00:46:53;7.60;;;4.40;;
4563;SDS011;2294;51.818;8.484;2022-09-06T00:49:21;6.83;;;3.33;;
4563;SDS011;2294;51.818;8.484;2022-09-06T00:51:53;4.10;;;3.70;;
4563;SDS011;2294;51.818;8.484;2022-09-06T00:54:22;5.20;;;4.37;;
4563;SDS011;2294;51.818;8.484;2022-09-06T00:56:50;6.00;;;3.53;;
4563;SDS011;2294;51.818;8.484;2022-09-06T00:59:17;4.57;;;3.57;;
4563;SDS011;2294;51.818;8.484;2022-09-06T01:01:44;8.60;;;4.23;;
4563;SDS011;2294;51.818;8.484;2022-09-06T01:04:11;4.63;;;4.23;;
4563;SDS011;2294;51.818;8.484;2022-09-06T01:06:43;4.00;;;3.60;;
4563;SDS011;2294;51.818;8.484;2022-09-06T01:09:21;11.40;;;3.83;;
4563;SDS011;2294;51.818;8.484;2022-09-06T01:12:02;4.20;;;3.40;;
4563;SDS011;2294;51.818;8.484;2022-09-06T01:14:40;5.87;;;3.63;;
4563;SDS011;2294;51.818;8.484;2022-09-06T01:17:16;6.57;;;3.83;;
4563;SDS011;2294;51.818;8.484;2022-09-06T01:20:03;7.20;;;3.70;;
4563;SDS011;2294;51.818;8.484;2022-09-06T01:23:03;4.63;;;3.93;;
4563;SDS011;2294;51.818;8.484;2022-09-06T01:26:15;5.67;;;3.57;;
4563;SDS011;2294;51.818;8.484;2022-09-06T01:28:59;5.47;;;4.30;;
4563;SDS011;2294;51.818;8.484;2022-09-06T01:31:29;4.90;;;3.50;;
4563;SDS011;2294;51.818;8.484;2022-09-06T01:34:10;4.07;;;3.67;;
4563;SDS011;2294;51.818;8.484;2022-09-06T01:36:45;6.90;;;3.60;;
4563;SDS011;2294;51.818;8.484;2022-09-06T01:39:19;4.57;;;3.60;;
4563;SDS011;2294;51.818;8.484;2022-09-06T01:41:50;5.87;;;3.50;;
4563;SDS011;2294;51.818;8.484;2022-09-06T01:44:19;8.67;;;3.70;;
4563;SDS011;2294;51.818;8.484;2022-09-06T01:46:49;7.10;;;4.63;;
4563;SDS011;2294;51.818;8.484;2022-09-06T01:49:26;4.00;;;3.60;;
4563;SDS011;2294;51.818;8.484;2022-09-06T01:52:05;4.77;;;3.40;;
4563;SDS011;2294;51.818;8.484;2022-09-06T01:54:51;4.53;;;3.00;;
4563;SDS011;2294;51.818;8.484;2022-09-06T01:57:34;4.87;;;3.63;;
4563;SDS011;2294;51.818;8.484;2022-09-06T02:00:15;4.73;;;3.90;;
4563;SDS011;2294;51.818;8.484;2022-09-06T02:02:47;3.37;;;3.07;;
4563;SDS011;2294;51.818;8.484;2022-09-06T02:05:23;3.57;;;3.27;;
4563;SDS011;2294;51.818;8.484;2022-09-06T02:07:55;4.10;;;3.70;;
4563;SDS011;2294;51.818;8.484;2022-09-06T02:10:26;5.87;;;3.57;;
4563;SDS011;2294;51.818;8.484;2022-09-06T02:12:59;10.23;;;3.63;;
4563;SDS011;2294;51.818;8.484;2022-09-06T02:15:30;3.50;;;3.20;;
4563;SDS011;2294;51.818;8.484;2022-09-06T02:18:01;4.50;;;3.50;;
4563;SDS011;2294;51.818;8.484;2022-09-06T02:20:32;5.20;;;4.30;;
4563;SDS011;2294;51.818;8.484;2022-09-06T02:23:04;8.83;;;3.77;;
4563;SDS011;2294;51.818;8.484;2022-09-06T02:25:33;4.17;;;3.77;;
4563;SDS011;2294;51.818;8.484;2022-09-06T02:28:03;4.50;;;3.60;;
4563;SDS011;2294;51.818;8.484;2022-09-06T02:30:33;3.77;;;3.30;;
4563;SDS011;2294;51.818;8.484;2022-09-06T02:33:17;5.10;;;3.73;;
4563;SDS011;2294;51.818;8.484;2022-09-06T02:35:46;7.20;;;3.80;;
4563;SDS011;2294;51.818;8.484;2022-09-06T02:38:15;4.40;;;4.00;;
4563;SDS011;2294;51.818;8.484;2022-09-06T02:40:42;9.70;;;3.73;;
4563;SDS011;2294;51.818;8.484;2022-09-06T02:43:11;5.53;;;3.90;;
4563;SDS011;2294;51.818;8.484;2022-09-06T02:45:39;6.07;;;3.97;;
4563;SDS011;2294;51.818;8.484;2022-09-06T02:48:06;7.00;;;4.63;;
4563;SDS011;2294;51.818;8.484;2022-09-06T02:50:33;7.90;;;4.03;;
4563;SDS011;2294;51.818;8.484;2022-09-06T02:53:01;4.37;;;3.50;;
4563;SDS011;2294;51.818;8.484;2022-09-06T02:55:30;5.97;;;4.17;;
4563;SDS011;2294;51.818;8.484;2022-09-06T02:57:57;11.27;;;3.80;;
4563;SDS011;2294;51.818;8.484;2022-09-06T03:00:24;9.13;;;3.60;;
4563;SDS011;2294;51.818;8.484;2022-09-06T03:02:53;5.10;;;3.77;;
4563;SDS011;2294;51.818;8.484;2022-09-06T03:05:20;9.30;;;4.23;;
4563;SDS011;2294;51.818;8.484;2022-09-06T03:07:47;5.53;;;4.00;;
4563;SDS011;2294;51.818;8.484;2022-09-06T03:10:14;6.67;;;3.67;;
4563;SDS011;2294;51.818;8.484;2022-09-06T03:12:41;4.20;;;3.80;;
4563;SDS011;2294;51.818;8.484;2022-09-06T03:15:09;6.10;;;4.43;;
4563;SDS011;2294;51.818;8.484;2022-09-06T03:17:36;5.70;;;3.50;;
4563;SDS011;2294;51.818;8.484;2022-09-06T03:20:06;7.53;;;3.80;;
4563;SDS011;2294;51.818;8.484;2022-09-06T03:22:34;5.30;;;3.97;;
4563;SDS011;2294;51.818;8.484;2022-09-06T03:25:01;3.60;;;3.30;;
4563;SDS011;2294;51.818;8.484;2022-09-06T03:27:28;5.50;;;4.03;;
4563;SDS011;2294;51.818;8.484;2022-09-06T03:29:55;8.27;;;3.70;;
4563;SDS011;2294;51.818;8.484;2022-09-06T03:32:22;4.20;;;3.80;;
4563;SDS011;2294;51.818;8.484;2022-09-06T03:34:49;4.90;;;3.60;;
4563;SDS011;2294;51.818;8.484;2022-09-06T03:37:18;9.30;;;3.40;;
4563;SDS011;2294;51.818;8.484;2022-09-06T03:39:44;4.90;;;4.10;;
4563;SDS011;2294;51.818;8.484;2022-09-06T03:42:12;5.47;;;4.20;;
4563;SDS011;2294;51.818;8.484;2022-09-06T03:44:38;4.37;;;3.97;;
4563;SDS011;2294;51.818;8.484;2022-09-06T03:47:05;6.60;;;4.20;;
4563;SDS011;2294;51.818;8.484;2022-09-06T03:49:32;4.60;;;4.20;;
4563;SDS011;2294;51.818;8.484;2022-09-06T03:51:59;5.23;;;3.93;;
4563;SDS011;2294;51.818;8.484;2022-09-06T03:54:28;7.67;;;4.57;;
4563;SDS011;2294;51.818;8.484;2022-09-06T03:56:55;7.50;;;4.70;;
4563;SDS011;2294;51.818;8.484;2022-09-06T03:59:22;5.70;;;4.77;;
4563;SDS011;2294;51.818;8.484;2022-09-06T04:01:49;6.03;;;4.57;;
4563;SDS011;2294;51.818;8.484;2022-09-06T04:04:16;7.00;;;4.20;;
4563;SDS011;2294;51.818;8.484;2022-09-06T04:06:42;8.83;;;4.20;;
4563;SDS011;2294;51.818;8.484;2022-09-06T04:09:09;4.77;;;3.80;;
4563;SDS011;2294;51.818;8.484;2022-09-06T04:11:38;4.40;;;4.00;;
4563;SDS011;2294;51.818;8.484;2022-09-06T04:14:04;5.50;;;3.63;;
4563;SDS011;2294;51.818;8.484;2022-09-06T04:16:31;5.00;;;4.40;;
4563;SDS011;2294;51.818;8.484;2022-09-06T04:18:58;6.73;;;4.20;;
4563;SDS011;2294;51.818;8.484;2022-09-06T04:21:26;7.43;;;3.90;;
4563;SDS011;2294;51.818;8.484;2022-09-06T04:23:53;4.60;;;4.00;;
4563;SDS011;2294;51.818;8.484;2022-09-06T04:26:20;4.77;;;4.07;;
4563;SDS011;2294;51.818;8.484;2022-09-06T04:28:49;7.90;;;5.17;;
4563;SDS011;2294;51.818;8.484;2022-09-06T04:31:16;6.43;;;4.77;;
4563;SDS011;2294;51.818;8.484;2022-09-06T04:33:42;5.63;;;4.50;;
4563;SDS011;2294;51.818;8.484;2022-09-06T04:36:10;11.43;;;4.30;;
4563;SDS011;2294;51.818;8.484;2022-09-06T04:38:38;9.40;;;4.80;;
4563;SDS011;2294;51.818;8.484;2022-09-06T04:41:06;12.33;;;4.80;;
4563;SDS011;2294;51.818;8.484;2022-09-06T04:43:34;10.47;;;4.87;;
4563;SDS011;2294;51.818;8.484;2022-09-06T04:46:03;5.87;;;4.60;;
4563;SDS011;2294;51.818;8.484;2022-09-06T04:48:30;5.80;;;4.53;;
4563;SDS011;2294;51.818;8.484;2022-09-06T04:50:57;9.73;;;4.80;;
4563;SDS011;2294;51.818;8.484;2022-09-06T04:53:24;8.10;;;4.70;;
4563;SDS011;2294;51.818;8.484;2022-09-06T04:55:51;5.77;;;4.40;;
4563;SDS011;2294;51.818;8.484;2022-09-06T04:58:18;6.33;;;4.70;;
4563;SDS011;2294;51.818;8.484;2022-09-06T05:00:45;5.20;;;4.57;;
4563;SDS011;2294;51.818;8.484;2022-09-06T05:03:13;4.97;;;4.30;;
4563;SDS011;2294;51.818;8.484;2022-09-06T05:05:40;8.50;;;4.77;;
4563;SDS011;2294;51.818;8.484;2022-09-06T05:08:07;8.50;;;5.30;;
4563;SDS011;2294;51.818;8.484;2022-09-06T05:10:34;6.20;;;4.60;;
4563;SDS011;2294;51.818;8.484;2022-09-06T05:13:01;6.60;;;4.47;;
4563;SDS011;2294;51.818;8.484;2022-09-06T05:15:28;6.70;;;4.63;;
4563;SDS011;2294;51.818;8.484;2022-09-06T05:18:00;5.30;;;4.77;;
4563;SDS011;2294;51.818;8.484;2022-09-06T05:20:29;8.43;;;4.90;;
4563;SDS011;2294;51.818;8.484;2022-09-06T05:22:56;6.00;;;5.30;;
4563;SDS011;2294;51.818;8.484;2022-09-06T05:25:23;11.30;;;4.53;;
4563;SDS011;2294;51.818;8.484;2022-09-06T05:27:50;5.47;;;4.20;;
4563;SDS011;2294;51.818;8.484;2022-09-06T05:30:17;6.23;;;4.37;;
4563;SDS011;2294;51.818;8.484;2022-09-06T05:32:44;7.80;;;4.30;;
4563;SDS011;2294;51.818;8.484;2022-09-06T05:35:11;5.70;;;4.37;;
4563;SDS011;2294;51.818;8.484;2022-09-06T05:37:40;7.47;;;4.20;;
4563;SDS011;2294;51.818;8.484;2022-09-06T05:40:07;5.90;;;5.00;;
4563;SDS011;2294;51.818;8.484;2022-09-06T05:42:34;4.40;;;4.00;;
4563;SDS011;2294;51.818;8.484;2022-09-06T05:45:01;5.30;;;4.10;;
4563;SDS011;2294;51.818;8.484;2022-09-06T05:47:30;6.70;;;4.17;;
4563;SDS011;2294;51.818;8.484;2022-09-06T05:49:59;5.17;;;4.37;;
4563;SDS011;2294;51.818;8.484;2022-09-06T05:52:26;5.57;;;3.90;;
4563;SDS011;2294;51.818;8.484;2022-09-06T05:54:55;5.50;;;4.80;;
4563;SDS011;2294;51.818;8.484;2022-09-06T05:57:22;5.23;;;4.70;;
4563;SDS011;2294;51.818;8.484;2022-09-06T05:59:49;5.10;;;4.60;;
4563;SDS011;2294;51.818;8.484;2022-09-06T06:02:17;4.83;;;4.33;;
4563;SDS011;2294;51.818;8.484;2022-09-06T06:04:44;8.20;;;4.77;;
4563;SDS011;2294;51.818;8.484;2022-09-06T06:07:11;5.60;;;4.43;;
4563;SDS011;2294;51.818;8.484;2022-09-06T06:09:38;7.03;;;4.80;;
4563;SDS011;2294;51.818;8.484;2022-09-06T06:12:07;6.13;;;4.90;;
4563;SDS011;2294;51.818;8.484;2022-09-06T06:14:34;10.13;;;5.30;;
4563;SDS011;2294;51.818;8.484;2022-09-06T06:17:01;5.97;;;4.30;;
4563;SDS011;2294;51.818;8.484;2022-09-06T06:19:28;6.07;;;4.53;;
4563;SDS011;2294;51.818;8.484;2022-09-06T06:21:55;8.67;;;5.10;;
4563;SDS011;2294;51.818;8.484;2022-09-06T06:24:23;5.43;;;4.37;;
4563;SDS011;2294;51.818;8.484;2022-09-06T06:29:20;5.93;;;4.40;;
4563;SDS011;2294;51.818;8.484;2022-09-06T06:31:49;4.80;;;4.37;;
4563;SDS011;2294;51.818;8.484;2022-09-06T06:34:16;7.30;;;5.43;;
4563;SDS011;2294;51.818;8.484;2022-09-06T06:36:45;6.63;;;4.77;;
4563;SDS011;2294;51.818;8.484;2022-09-06T06:39:13;7.60;;;5.27;;
4563;SDS011;2294;51.818;8.484;2022-09-06T06:41:40;5.17;;;4.40;;
4563;SDS011;2294;51.818;8.484;2022-09-06T06:44:07;6.50;;;4.87;;
4563;SDS011;2294;51.818;8.484;2022-09-06T06:46:36;5.40;;;4.83;;
4563;SDS011;2294;51.818;8.484;2022-09-06T06:49:05;8.47;;;4.80;;
4563;SDS011;2294;51.818;8.484;2022-09-06T06:51:33;7.53;;;5.00;;
4563;SDS011;2294;51.818;8.484;2022-09-06T06:54:01;7.60;;;5.33;;
4563;SDS011;2294;51.818;8.484;2022-09-06T06:56:30;6.47;;;5.03;;
4563;SDS011;2294;51.818;8.484;2022-09-06T06:58:58;7.13;;;5.33;;
4563;SDS011;2294;51.818;8.484;2022-09-06T07:01:28;7.37;;;4.80;;
4563;SDS011;2294;51.818;8.484;2022-09-06T07:03:58;6.67;;;5.40;;
4563;SDS011;2294;51.818;8.484;2022-09-06T07:06:25;6.50;;;5.00;;
4563;SDS011;2294;51.818;8.484;2022-09-06T07:08:54;7.20;;;4.50;;
4563;SDS011;2294;51.818;8.484;2022-09-06T07:11:22;38.07;;;15.30;;
4563;SDS011;2294;51.818;8.484;2022-09-06T07:13:49;10.37;;;5.10;;
4563;SDS011;2294;51.818;8.484;2022-09-06T07:16:17;15.70;;;5.17;;
4563;SDS011;2294;51.818;8.484;2022-09-06T07:18:45;7.13;;;5.40;;
4563;SDS011;2294;51.818;8.484;2022-09-06T07:21:17;7.83;;;5.20;;
4563;SDS011;2294;51.818;8.484;2022-09-06T07:23:45;6.40;;;4.90;;
4563;SDS011;2294;51.818;8.484;2022-09-06T07:26:12;6.80;;;5.00;;
4563;SDS011;2294;51.818;8.484;2022-09-06T07:28:40;8.53;;;4.97;;
4563;SDS011;2294;51.818;8.484;2022-09-06T07:31:08;8.90;;;4.67;;
4563;SDS011;2294;51.818;8.484;2022-09-06T07:33:35;11.80;;;4.80;;
4563;SDS011;2294;51.818;8.484;2022-09-06T07:36:04;7.40;;;4.93;;
4563;SDS011;2294;51.818;8.484;2022-09-06T07:38:34;12.33;;;4.50;;
4563;SDS011;2294;51.818;8.484;2022-09-06T07:41:02;6.20;;;5.17;;
4563;SDS011;2294;51.818;8.484;2022-09-06T07:43:31;5.67;;;4.50;;
4563;SDS011;2294;51.818;8.484;2022-09-06T07:45:59;8.30;;;5.30;;
4563;SDS011;2294;51.818;8.484;2022-09-06T07:48:28;8.13;;;5.33;;
4563;SDS011;2294;51.818;8.484;2022-09-06T07:51:01;7.00;;;5.30;;
4563;SDS011;2294;51.818;8.484;2022-09-06T07:53:30;6.43;;;4.40;;
4563;SDS011;2294;51.818;8.484;2022-09-06T07:55:59;14.80;;;5.20;;
4563;SDS011;2294;51.818;8.484;2022-09-06T07:58:28;6.77;;;4.90;;
4563;SDS011;2294;51.818;8.484;2022-09-06T08:03:45;11.07;;;5.30;;
4563;SDS011;2294;51.818;8.484;2022-09-06T08:06:12;7.90;;;5.40;;
4563;SDS011;2294;51.818;8.484;2022-09-06T08:08:39;7.37;;;4.90;;
4563;SDS011;2294;51.818;8.484;2022-09-06T08:11:08;7.57;;;4.60;;
4563;SDS011;2294;51.818;8.484;2022-09-06T08:13:35;9.83;;;4.20;;
4563;SDS011;2294;51.818;8.484;2022-09-06T08:16:03;8.33;;;4.90;;
4563;SDS011;2294;51.818;8.484;2022-09-06T08:18:32;4.50;;;3.80;;
4563;SDS011;2294;51.818;8.484;2022-09-06T08:21:05;8.33;;;4.70;;
4563;SDS011;2294;51.818;8.484;2022-09-06T08:23:35;4.77;;;4.03;;
4563;SDS011;2294;51.818;8.484;2022-09-06T08:26:02;11.27;;;4.60;;
4563;SDS011;2294;51.818;8.484;2022-09-06T08:28:30;6.10;;;4.27;;
4563;SDS011;2294;51.818;8.484;2022-09-06T08:31:03;8.70;;;4.03;;
4563;SDS011;2294;51.818;8.484;2022-09-06T08:33:31;4.53;;;4.13;;
4563;SDS011;2294;51.818;8.484;2022-09-06T08:35:58;4.60;;;3.90;;
4563;SDS011;2294;51.818;8.484;2022-09-06T08:38:25;10.90;;;3.80;;
4563;SDS011;2294;51.818;8.484;2022-09-06T08:40:53;4.63;;;3.30;;
4563;SDS011;2294;51.818;8.484;2022-09-06T08:43:33;6.77;;;3.27;;
4563;SDS011;2294;51.818;8.484;2022-09-06T08:46:00;4.77;;;3.87;;
4563;SDS011;2294;51.818;8.484;2022-09-06T08:48:28;3.67;;;2.90;;
4563;SDS011;2294;51.818;8.484;2022-09-06T08:51:00;7.50;;;3.20;;
4563;SDS011;2294;51.818;8.484;2022-09-06T08:53:40;3.30;;;2.70;;
4563;SDS011;2294;51.818;8.484;2022-09-06T08:56:12;3.10;;;2.50;;
4563;SDS011;2294;51.818;8.484;2022-09-06T09:01:31;5.60;;;3.10;;
4563;SDS011;2294;51.818;8.484;2022-09-06T09:04:05;5.83;;;3.20;;
4563;SDS011;2294;51.818;8.484;2022-09-06T09:06:40;4.40;;;2.57;;
4563;SDS011;2294;51.818;8.484;2022-09-06T09:09:15;5.23;;;2.43;;
4563;SDS011;2294;51.818;8.484;2022-09-06T09:11:42;3.10;;;2.77;;
4563;SDS011;2294;51.818;8.484;2022-09-06T09:14:15;6.80;;;2.73;;
4563;SDS011;2294;51.818;8.484;2022-09-06T09:16:48;5.27;;;2.93;;
4563;SDS011;2294;51.818;8.484;2022-09-06T09:19:16;3.50;;;2.80;;
4563;SDS011;2294;51.818;8.484;2022-09-06T09:21:43;3.67;;;3.20;;
4563;SDS011;2294;51.818;8.484;2022-09-06T09:24:11;4.17;;;3.20;;
4563;SDS011;2294;51.818;8.484;2022-09-06T09:26:45;5.70;;;3.40;;
4563;SDS011;2294;51.818;8.484;2022-09-06T09:29:18;6.20;;;4.30;;
4563;SDS011;2294;51.818;8.484;2022-09-06T09:31:45;6.43;;;3.20;;
4563;SDS011;2294;51.818;8.484;2022-09-06T09:34:26;9.27;;;2.90;;
4563;SDS011;2294;51.818;8.484;2022-09-06T09:37:08;10.50;;;4.20;;
4563;SDS011;2294;51.818;8.484;2022-09-06T09:39:37;6.90;;;2.97;;
4563;SDS011;2294;51.818;8.484;2022-09-06T09:42:04;4.13;;;2.80;;
4563;SDS011;2294;51.818;8.484;2022-09-06T09:44:34;5.40;;;2.50;;
4563;SDS011;2294;51.818;8.484;2022-09-06T09:47:09;4.37;;;2.63;;
4563;SDS011;2294;51.818;8.484;2022-09-06T09:49:48;5.70;;;3.30;;
4563;SDS011;2294;51.818;8.484;2022-09-06T09:52:15;3.70;;;2.93;;
4563;SDS011;2294;51.818;8.484;2022-09-06T09:54:49;4.13;;;3.10;;
4563;SDS011;2294;51.818;8.484;2022-09-06T09:57:20;4.33;;;2.40;;
4563;SDS011;2294;51.818;8.484;2022-09-06T09:59:50;3.00;;;2.33;;
4563;SDS011;2294;51.818;8.484;2022-09-06T10:02:22;5.63;;;2.30;;
4563;SDS011;2294;51.818;8.484;2022-09-06T10:04:52;11.83;;;3.30;;
4563;SDS011;2294;51.818;8.484;2022-09-06T10:07:28;10.33;;;3.07;;
4563;SDS011;2294;51.818;8.484;2022-09-06T10:09:58;8.50;;;3.00;;
4563;SDS011;2294;51.818;8.484;2022-09-06T10:12:29;5.70;;;2.47;;
4563;SDS011;2294;51.818;8.484;2022-09-06T10:14:59;3.90;;;2.63;;
4563;SDS011;2294;51.818;8.484;2022-09-06T10:17:27;3.07;;;2.70;;
4563;SDS011;2294;51.818;8.484;2022-09-06T10:19:56;5.33;;;3.10;;
4563;SDS011;2294;51.818;8.484;2022-09-06T10:22:27;5.27;;;2.80;;
4563;SDS011;2294;51.818;8.484;2022-09-06T10:27:48;5.73;;;3.30;;
4563;SDS011;2294;51.818;8.484;2022-09-06T10:30:34;3.37;;;2.63;;
4563;SDS011;2294;51.818;8.484;2022-09-06T10:33:08;9.20;;;2.67;;
4563;SDS011;2294;51.818;8.484;2022-09-06T10:35:48;4.10;;;2.40;;
4563;SDS011;2294;51.818;8.484;2022-09-06T10:38:19;4.87;;;2.40;;
4563;SDS011;2294;51.818;8.484;2022-09-06T10:40:59;2.80;;;2.03;;
4563;SDS011;2294;51.818;8.484;2022-09-06T10:43:43;4.90;;;1.90;;
4563;SDS011;2294;51.818;8.484;2022-09-06T10:46:26;2.73;;;1.90;;
4563;SDS011;2294;51.818;8.484;2022-09-06T10:48:55;2.70;;;1.70;;
4563;SDS011;2294;51.818;8.484;2022-09-06T10:51:25;2.77;;;1.97;;
4563;SDS011;2294;51.818;8.484;2022-09-06T10:54:00;3.60;;;1.50;;
4563;SDS011;2294;51.818;8.484;2022-09-06T10:56:34;3.10;;;2.10;;
4563;SDS011;2294;51.818;8.484;2022-09-06T10:59:09;1.83;;;1.70;;
4563;SDS011;2294;51.818;8.484;2022-09-06T11:01:46;2.23;;;1.90;;
4563;SDS011;2294;51.818;8.484;2022-09-06T11:04:22;4.60;;;2.13;;
4563;SDS011;2294;51.818;8.484;2022-09-06T11:06:54;2.93;;;1.93;;
4563;SDS011;2294;51.818;8.484;2022-09-06T11:09:25;3.10;;;2.00;;
4563;SDS011;2294;51.818;8.484;2022-09-06T11:11:59;2.30;;;1.60;;
4563;SDS011;2294;51.818;8.484;2022-09-06T11:14:31;2.10;;;1.90;;
4563;SDS011;2294;51.818;8.484;2022-09-06T11:17:03;3.87;;;2.13;;
4563;SDS011;2294;51.818;8.484;2022-09-06T11:19:35;4.73;;;2.20;;
4563;SDS011;2294;51.818;8.484;2022-09-06T11:22:15;2.50;;;2.10;;
4563;SDS011;2294;51.818;8.484;2022-09-06T11:25:17;3.67;;;2.17;;
4563;SDS011;2294;51.818;8.484;2022-09-06T11:28:21;16.70;;;2.53;;
4563;SDS011;2294;51.818;8.484;2022-09-06T11:30:55;4.80;;;1.77;;
4563;SDS011;2294;51.818;8.484;2022-09-06T11:33:25;2.77;;;1.90;;
4563;SDS011;2294;51.818;8.484;2022-09-06T11:36:13;7.33;;;1.97;;
4563;SDS011;2294;51.818;8.484;2022-09-06T11:38:49;4.30;;;2.03;;
4563;SDS011;2294;51.818;8.484;2022-09-06T11:41:20;2.13;;;1.90;;
4563;SDS011;2294;51.818;8.484;2022-09-06T11:43:51;4.77;;;2.03;;
4563;SDS011;2294;51.818;8.484;2022-09-06T11:49:34;11.03;;;2.90;;
4563;SDS011;2294;51.818;8.484;2022-09-06T11:55:07;8.40;;;2.00;;
4563;SDS011;2294;51.818;8.484;2022-09-06T11:57:37;3.60;;;1.90;;
4563;SDS011;2294;51.818;8.484;2022-09-06T12:00:06;6.37;;;1.90;;
4563;SDS011;2294;51.818;8.484;2022-09-06T12:02:44;3.33;;;2.17;;
4563;SDS011;2294;51.818;8.484;2022-09-06T12:05:20;2.60;;;2.00;;
4563;SDS011;2294;51.818;8.484;2022-09-06T12:10:45;2.30;;;1.87;;
4563;SDS011;2294;51.818;8.484;2022-09-06T12:13:40;2.37;;;2.00;;
4563;SDS011;2294;51.818;8.484;2022-09-06T12:16:14;4.77;;;2.30;;
4563;SDS011;2294;51.818;8.484;2022-09-06T12:18:52;6.20;;;2.07;;
4563;SDS011;2294;51.818;8.484;2022-09-06T12:21:35;3.27;;;1.40;;
4563;SDS011;2294;51.818;8.484;2022-09-06T12:24:05;7.00;;;2.00;;
4563;SDS011;2294;51.818;8.484;2022-09-06T12:26:46;12.20;;;2.00;;
4563;SDS011;2294;51.818;8.484;2022-09-06T12:29:16;3.53;;;1.90;;
4563;SDS011;2294;51.818;8.484;2022-09-06T12:34:18;4.63;;;1.90;;
4563;SDS011;2294;51.818;8.484;2022-09-06T12:36:50;10.03;;;2.40;;
4563;SDS011;2294;51.818;8.484;2022-09-06T12:39:20;2.97;;;2.47;;
4563;SDS011;2294;51.818;8.484;2022-09-06T12:41:48;3.53;;;2.07;;
4563;SDS011;2294;51.818;8.484;2022-09-06T12:44:22;2.33;;;1.77;;
4563;SDS011;2294;51.818;8.484;2022-09-06T12:46:56;2.43;;;2.00;;
4563;SDS011;2294;51.818;8.484;2022-09-06T12:49:28;3.20;;;2.00;;
4563;SDS011;2294;51.818;8.484;2022-09-06T12:52:06;6.63;;;1.57;;
4563;SDS011;2294;51.818;8.484;2022-09-06T12:54:40;3.23;;;1.80;;
4563;SDS011;2294;51.818;8.484;2022-09-06T12:57:10;5.07;;;2.00;;
4563;SDS011;2294;51.818;8.484;2022-09-06T12:59:45;4.20;;;2.10;;
4563;SDS011;2294;51.818;8.484;2022-09-06T13:02:15;3.60;;;2.20;;
4563;SDS011;2294;51.818;8.484;2022-09-06T13:04:45;3.30;;;1.80;;
4563;SDS011;2294;51.818;8.484;2022-09-06T13:07:19;3.53;;;2.07;;
4563;SDS011;2294;51.818;8.484;2022-09-06T13:09:48;3.13;;;1.80;;
4563;SDS011;2294;51.818;8.484;2022-09-06T13:12:20;2.17;;;1.70;;
4563;SDS011;2294;51.818;8.484;2022-09-06T13:14:51;4.33;;;2.00;;
4563;SDS011;2294;51.818;8.484;2022-09-06T13:17:22;7.70;;;2.10;;
4563;SDS011;2294;51.818;8.484;2022-09-06T13:19:51;3.23;;;2.03;;
4563;SDS011;2294;51.818;8.484;2022-09-06T13:22:39;4.80;;;2.20;;
4563;SDS011;2294;51.818;8.484;2022-09-06T13:25:15;3.00;;;1.93;;
4563;SDS011;2294;51.818;8.484;2022-09-06T13:27:50;2.93;;;1.97;;
4563;SDS011;2294;51.818;8.484;2022-09-06T13:30:32;5.33;;;2.00;;
4563;SDS011;2294;51.818;8.484;2022-09-06T13:33:01;3.53;;;2.03;;
4563;SDS011;2294;51.818;8.484;2022-09-06T13:35:30;2.50;;;1.80;;
4563;SDS011;2294;51.818;8.484;2022-09-06T13:38:19;5.90;;;1.90;;
4563;SDS011;2294;51.818;8.484;2022-09-06T13:40:54;3.57;;;2.00;;
4563;SDS011;2294;51.818;8.484;2022-09-06T13:43:21;2.40;;;2.00;;
4563;SDS011;2294;51.818;8.484;2022-09-06T13:45:56;3.17;;;1.70;;
4563;SDS011;2294;51.818;8.484;2022-09-06T13:48:30;2.67;;;1.63;;
4563;SDS011;2294;51.818;8.484;2022-09-06T13:50:58;2.73;;;1.70;;
4563;SDS011;2294;51.818;8.484;2022-09-06T13:53:26;5.03;;;2.17;;
4563;SDS011;2294;51.818;8.484;2022-09-06T13:55:53;4.93;;;1.90;;
4563;SDS011;2294;51.818;8.484;2022-09-06T13:58:20;2.20;;;1.67;;
4563;SDS011;2294;51.818;8.484;2022-09-06T14:00:47;2.97;;;2.00;;
4563;SDS011;2294;51.818;8.484;2022-09-06T14:03:17;5.30;;;1.77;;
4563;SDS011;2294;51.818;8.484;2022-09-06T14:05:47;1.67;;;1.57;;
4563;SDS011;2294;51.818;8.484;2022-09-06T14:08:14;8.73;;;2.67;;
4563;SDS011;2294;51.818;8.484;2022-09-06T14:10:43;2.60;;;1.90;;
4563;SDS011;2294;51.818;8.484;2022-09-06T14:13:12;5.20;;;1.80;;
4563;SDS011;2294;51.818;8.484;2022-09-06T14:15:39;3.63;;;1.80;;
4563;SDS011;2294;51.818;8.484;2022-09-06T14:18:06;2.10;;;1.80;;
4563;SDS011;2294;51.818;8.484;2022-09-06T14:20:33;2.70;;;1.50;;
4563;SDS011;2294;51.818;8.484;2022-09-06T14:23:00;3.07;;;1.70;;
4563;SDS011;2294;51.818;8.484;2022-09-06T14:25:27;4.27;;;2.50;;
4563;SDS011;2294;51.818;8.484;2022-09-06T14:27:56;9.03;;;2.70;;
4563;SDS011;2294;51.818;8.484;2022-09-06T14:30:23;3.30;;;1.80;;
4563;SDS011;2294;51.818;8.484;2022-09-06T14:32:50;1.30;;;1.13;;
4563;SDS011;2294;51.818;8.484;2022-09-06T14:35:17;4.27;;;1.60;;
4563;SDS011;2294;51.818;8.484;2022-09-06T14:37:43;1.83;;;1.30;;
4563;SDS011;2294;51.818;8.484;2022-09-06T14:40:10;1.77;;;1.37;;
4563;SDS011;2294;51.818;8.484;2022-09-06T14:42:37;2.50;;;1.30;;
4563;SDS011;2294;51.818;8.484;2022-09-06T14:45:06;3.23;;;1.50;;
4563;SDS011;2294;51.818;8.484;2022-09-06T14:47:34;1.53;;;1.23;;
4563;SDS011;2294;51.818;8.484;2022-09-06T14:50:01;8.77;;;1.47;;
4563;SDS011;2294;51.818;8.484;2022-09-06T14:52:28;4.30;;;1.13;;
4563;SDS011;2294;51.818;8.484;2022-09-06T14:54:55;1.27;;;1.00;;
4563;SDS011;2294;51.818;8.484;2022-09-06T14:57:22;1.80;;;1.10;;
4563;SDS011;2294;51.818;8.484;2022-09-06T14:59:49;5.20;;;1.50;;
4563;SDS011;2294;51.818;8.484;2022-09-06T15:02:18;1.97;;;1.33;;
4563;SDS011;2294;51.818;8.484;2022-09-06T15:04:45;5.70;;;1.47;;
4563;SDS011;2294;51.818;8.484;2022-09-06T15:07:12;2.20;;;1.20;;
4563;SDS011;2294;51.818;8.484;2022-09-06T15:09:39;1.93;;;1.13;;
4563;SDS011;2294;51.818;8.484;2022-09-06T15:12:07;2.73;;;1.50;;
4563;SDS011;2294;51.818;8.484;2022-09-06T15:14:34;2.83;;;1.50;;
4563;SDS011;2294;51.818;8.484;2022-09-06T15:17:01;2.83;;;1.60;;
4563;SDS011;2294;51.818;8.484;2022-09-06T15:19:34;5.40;;;1.60;;
4563;SDS011;2294;51.818;8.484;2022-09-06T15:22:02;1.73;;;1.20;;
4563;SDS011;2294;51.818;8.484;2022-09-06T15:24:30;4.40;;;1.30;;
4563;SDS011;2294;51.818;8.484;2022-09-06T15:26:57;3.00;;;1.60;;
4563;SDS011;2294;51.818;8.484;2022-09-06T15:29:25;2.33;;;1.77;;
4563;SDS011;2294;51.818;8.484;2022-09-06T15:31:52;1.70;;;1.20;;
4563;SDS011;2294;51.818;8.484;2022-09-06T15:34:21;2.87;;;1.40;;
4563;SDS011;2294;51.818;8.484;2022-09-06T15:36:51;5.07;;;1.40;;
4563;SDS011;2294;51.818;8.484;2022-09-06T15:39:18;2.40;;;1.20;;
4563;SDS011;2294;51.818;8.484;2022-09-06T15:41:48;6.97;;;1.80;;
4563;SDS011;2294;51.818;8.484;2022-09-06T15:44:16;2.80;;;1.40;;
4563;SDS011;2294;51.818;8.484;2022-09-06T15:46:49;1.90;;;1.30;;
4563;SDS011;2294;51.818;8.484;2022-09-06T15:49:18;2.90;;;1.10;;
4563;SDS011;2294;51.818;8.484;2022-09-06T15:51:47;4.70;;;1.37;;
4563;SDS011;2294;51.818;8.484;2022-09-06T15:54:16;8.20;;;1.57;;
4563;SDS011;2294;51.818;8.484;2022-09-06T15:57:04;6.10;;;1.53;;